Time;durP1;ratioP1;P1;durP2;ratioP2;P2;SDS_P1;SDS_P2;PMS_P1;PMS_P2;Temp;Humidity;BMP_temperature;BMP_pressure;BME280_temperature;BME280_humidity;BME280_pressure;Samples;Min_cycle;Max_cycle;Signal;HPM_P1;HPM_P2
2023/09/19 00:00:58;;;;;;;9.70;7.00;;;;;;;16.96;100.00;101325.31;109821;1245;62303;-72
2023/09/19 00:03:42;;;;;;;11.60;7.10;;;;;;;16.95;100.00;101319.95;109822;1244;61267;-73
2023/09/19 00:06:15;;;;;;;13.20;7.30;;;;;;;17.00;100.00;101319.05;109831;1244;74906;-73
2023/09/19 00:08:44;;;;;;;10.70;7.10;;;;;;;17.00;100.00;101319.52;109767;1244;60679;-72
2023/09/19 00:11:14;;;;;;;9.30;7.00;;;;;;;16.98;100.00;101320.63;109766;1243;69639;-73
2023/09/19 00:13:43;;;;;;;9.10;6.80;;;;;;;16.98;100.00;101318.68;109776;1245;74043;-74
2023/09/19 00:16:12;;;;;;;9.50;7.50;;;;;;;16.98;100.00;101321.67;109730;1247;62455;-73
2023/09/19 00:18:41;;;;;;;9.40;7.60;;;;;;;16.94;100.00;101322.50;109743;1245;57859;-74
2023/09/19 00:21:10;;;;;;;9.00;7.30;;;;;;;16.87;100.00;101317.66;109700;1244;65890;-73
2023/09/19 00:23:40;;;;;;;11.10;7.60;;;;;;;16.81;100.00;101317.20;109831;1244;72671;-73
2023/09/19 00:26:09;;;;;;;11.10;7.80;;;;;;;16.74;100.00;101316.97;109720;1244;60162;-73
2023/09/19 00:28:39;;;;;;;10.60;7.60;;;;;;;16.70;100.00;101310.77;109812;1244;62408;-73
2023/09/19 00:31:09;;;;;;;11.40;7.40;;;;;;;16.66;100.00;101311.95;109773;1245;58303;-72
2023/09/19 00:33:38;;;;;;;9.90;7.50;;;;;;;16.63;100.00;101310.65;109784;1244;58219;-73
2023/09/19 00:36:07;;;;;;;9.80;6.90;;;;;;;16.61;100.00;101308.52;109802;1244;63511;-73
2023/09/19 00:38:36;;;;;;;11.70;7.60;;;;;;;16.59;100.00;101306.30;109789;1244;62028;-73
2023/09/19 00:41:05;;;;;;;11.60;7.60;;;;;;;16.56;100.00;101304.96;109797;1245;69668;-73
2023/09/19 00:43:34;;;;;;;9.90;7.30;;;;;;;16.54;100.00;101305.84;109733;1244;63633;-73
2023/09/19 00:46:06;;;;;;;10.90;8.00;;;;;;;16.51;100.00;101302.04;109764;1248;58303;-73
2023/09/19 00:48:43;;;;;;;10.20;6.90;;;;;;;16.48;100.00;101300.78;109705;1248;57797;-73
2023/09/19 00:51:14;;;;;;;9.00;7.60;;;;;;;16.44;100.00;101301.98;109671;1245;73772;-75
2023/09/19 00:53:46;;;;;;;9.90;7.60;;;;;;;16.42;100.00;101299.35;109677;1247;70460;-74
2023/09/19 00:56:18;;;;;;;11.60;7.40;;;;;;;16.40;100.00;101302.11;109593;1244;69597;-73
2023/09/19 00:58:48;;;;;;;9.10;7.60;;;;;;;16.38;100.00;101299.66;109750;1245;73380;-72
2023/09/19 01:01:18;;;;;;;9.80;7.40;;;;;;;16.46;100.00;101293.50;109750;1244;59129;-72
2023/09/19 01:03:47;;;;;;;9.40;7.00;;;;;;;16.57;100.00;101293.58;109708;1247;57796;-71
2023/09/19 01:06:17;;;;;;;9.20;7.20;;;;;;;16.52;100.00;101290.85;109754;1244;63610;-70
2023/09/19 01:08:46;;;;;;;9.20;7.40;;;;;;;16.47;100.00;101289.92;109772;1244;62725;-72
2023/09/19 01:11:46;;;;;;;31.40;24.30;;;;;;;16.43;100.00;101287.66;109799;1242;58964;-72
2023/09/19 01:14:38;;;;;;;9.00;7.40;;;;;;;16.43;100.00;101279.03;109888;1244;64569;-72
2023/09/19 01:17:22;;;;;;;9.60;7.60;;;;;;;16.53;100.00;101275.36;109738;1245;58251;-73
2023/09/19 01:20:20;;;;;;;11.10;7.40;;;;;;;16.51;100.00;101269.14;109770;1243;61017;-73
2023/09/19 01:23:17;;;;;;;9.60;7.30;;;;;;;16.57;100.00;101262.15;109801;1244;74032;-73
2023/09/19 01:26:27;;;;;;;8.60;7.10;;;;;;;16.55;100.00;101260.06;109811;1243;61636;-73
2023/09/19 01:29:08;;;;;;;9.80;7.50;;;;;;;16.63;100.00;101254.75;109662;1243;70355;-71
2023/09/19 01:31:39;;;;;;;11.90;7.30;;;;;;;16.66;100.00;101249.37;109779;1243;63386;-73
2023/09/19 01:34:08;;;;;;;9.40;6.90;;;;;;;16.62;100.00;101251.44;109729;1245;58222;-72
2023/09/19 01:36:38;;;;;;;12.30;6.90;;;;;;;16.58;100.00;101252.02;109785;1243;57876;-72
2023/09/19 01:39:13;;;;;;;13.00;7.50;;;;;;;16.55;100.00;101252.66;109665;1244;74119;-73
2023/09/19 01:42:04;;;;;;;11.00;7.50;;;;;;;16.50;100.00;101251.35;109701;1243;61938;-71
2023/09/19 01:44:54;;;;;;;10.10;7.30;;;;;;;16.48;100.00;101259.76;109776;1244;59745;-73
2023/09/19 01:47:43;;;;;;;10.10;7.70;;;;;;;16.46;100.00;101261.40;109741;1244;63026;-74
2023/09/19 01:50:18;;;;;;;9.20;7.10;;;;;;;16.45;100.00;101254.23;109807;1243;61854;-74
2023/09/19 01:53:09;;;;;;;10.50;7.30;;;;;;;16.42;100.00;101253.05;109730;1244;60945;-73
2023/09/19 01:55:45;;;;;;;8.90;7.30;;;;;;;16.38;100.00;101251.19;109730;1244;73326;-74
2023/09/19 01:58:33;;;;;;;9.10;7.60;;;;;;;16.34;100.00;101244.71;109773;1244;61951;-73
2023/09/19 02:01:05;;;;;;;8.00;7.10;;;;;;;16.29;100.00;101239.84;109671;1243;59218;-73
2023/09/19 02:03:36;;;;;;;9.10;7.30;;;;;;;16.24;100.00;101237.00;109619;1244;73004;-73
2023/09/19 02:06:05;;;;;;;10.90;8.00;;;;;;;16.18;100.00;101234.34;109528;1248;61705;-72
2023/09/19 02:08:34;;;;;;;11.20;9.10;;;;;;;16.11;100.00;101229.67;109573;1244;60737;-72
2023/09/19 02:11:03;;;;;;;10.50;8.00;;;;;;;16.07;100.00;101229.48;109581;1245;63988;-72
2023/09/19 02:13:32;;;;;;;9.40;7.50;;;;;;;16.03;100.00;101228.91;109661;1244;71539;-73
2023/09/19 02:16:01;;;;;;;11.00;7.30;;;;;;;15.97;100.00;101225.61;109766;1244;70879;-74
2023/09/19 02:18:30;;;;;;;10.80;8.10;;;;;;;15.91;100.00;101225.20;109618;1244;74176;-74
2023/09/19 02:20:59;;;;;;;9.20;7.50;;;;;;;15.86;100.00;101219.55;109630;1244;58268;-73
2023/09/19 02:23:29;;;;;;;10.10;8.30;;;;;;;15.79;100.00;101213.09;109624;1244;61119;-72
2023/09/19 02:26:00;;;;;;;9.70;7.40;;;;;;;15.75;100.00;101207.69;109635;1244;74947;-73
2023/09/19 02:28:32;;;;;;;11.60;7.80;;;;;;;15.70;100.00;101200.70;109757;1244;70705;-73
2023/09/19 02:31:01;;;;;;;10.50;7.40;;;;;;;15.68;100.00;101198.16;109665;1244;68924;-73
2023/09/19 02:33:32;;;;;;;14.20;8.00;;;;;;;15.64;100.00;101192.23;109721;1244;74146;-72
2023/09/19 02:36:03;;;;;;;11.10;7.70;;;;;;;15.62;100.00;101188.26;109791;1244;57839;-72
2023/09/19 02:38:32;;;;;;;11.40;8.10;;;;;;;15.67;100.00;101188.16;109773;1244;58278;-73
2023/09/19 02:41:01;;;;;;;10.20;7.20;;;;;;;15.74;100.00;101192.48;109749;1243;72502;-72
2023/09/19 02:43:30;;;;;;;12.80;7.70;;;;;;;15.75;100.00;101193.95;109732;1243;72596;-71
2023/09/19 02:45:59;;;;;;;13.10;7.90;;;;;;;15.87;100.00;101190.83;109699;1244;70907;-72
2023/09/19 02:48:29;;;;;;;11.40;6.90;;;;;;;15.89;100.00;101190.07;109773;1245;74185;-72
2023/09/19 02:50:58;;;;;;;10.30;7.50;;;;;;;15.97;100.00;101190.70;109773;1243;63903;-72
2023/09/19 02:53:27;;;;;;;9.50;7.50;;;;;;;15.99;100.00;101187.83;109773;1243;59864;-72
2023/09/19 02:55:55;;;;;;;9.30;7.60;;;;;;;16.05;100.00;101189.71;109755;1244;74491;-71
2023/09/19 02:58:25;;;;;;;12.30;7.60;;;;;;;16.13;100.00;101189.60;109720;1244;60980;-73
2023/09/19 03:00:55;;;;;;;11.00;7.30;;;;;;;16.14;100.00;101188.58;109655;1243;70220;-74
2023/09/19 03:03:24;;;;;;;10.80;7.10;;;;;;;16.11;100.00;101183.47;109789;1244;74035;-74
2023/09/19 03:05:54;;;;;;;11.90;7.80;;;;;;;16.13;100.00;101184.48;109697;1245;58310;-74
2023/09/19 03:08:24;;;;;;;10.50;7.70;;;;;;;16.12;100.00;101184.53;109683;1244;61115;-74
2023/09/19 03:10:53;;;;;;;12.10;7.60;;;;;;;16.08;100.00;101183.73;109761;1243;63713;-74
2023/09/19 03:13:22;;;;;;;11.60;8.10;;;;;;;16.06;100.00;101187.23;109721;1246;61509;-74
2023/09/19 03:15:56;;;;;;;13.90;7.80;;;;;;;16.07;100.00;101188.20;109787;1245;59185;-73
2023/09/19 03:18:26;;;;;;;12.80;8.50;;;;;;;16.12;100.00;101185.63;109748;1244;72077;-74
2023/09/19 03:20:56;;;;;;;11.10;7.50;;;;;;;16.06;100.00;101185.45;109676;1247;57774;-74
2023/09/19 03:23:25;;;;;;;16.10;8.00;;;;;;;16.10;100.00;101186.65;109713;1244;60207;-74
2023/09/19 03:25:56;;;;;;;13.80;8.10;;;;;;;16.09;100.00;101187.63;109756;1243;63409;-74
2023/09/19 03:28:25;;;;;;;23.50;8.30;;;;;;;16.06;100.00;101188.83;109721;1243;72236;-74
2023/09/19 03:31:00;;;;;;;9.00;7.70;;;;;;;16.00;100.00;101185.85;109631;1247;60146;-74
2023/09/19 03:33:31;;;;;;;11.50;8.10;;;;;;;15.91;100.00;101180.98;109787;1244;63211;-74
2023/09/19 03:36:04;;;;;;;12.70;8.00;;;;;;;15.81;100.00;101178.00;109646;1248;57791;-73
2023/09/19 03:38:34;;;;;;;15.20;8.80;;;;;;;15.72;100.00;101180.15;109661;1244;60160;-74
2023/09/19 03:41:03;;;;;;;15.40;8.50;;;;;;;15.67;100.00;101180.46;109652;1247;63956;-74
2023/09/19 03:43:34;;;;;;;13.60;8.70;;;;;;;15.58;100.00;101180.26;109709;1244;70663;-74
2023/09/19 03:46:04;;;;;;;18.20;12.70;;;;;;;15.55;100.00;101184.27;109679;1244;61517;-74
2023/09/19 03:48:34;;;;;;;17.40;9.20;;;;;;;15.51;100.00;101187.07;109596;1245;74081;-74
2023/09/19 03:51:04;;;;;;;14.20;9.40;;;;;;;15.47;100.00;101186.02;109685;1244;62684;-72
2023/09/19 03:53:33;;;;;;;11.30;8.90;;;;;;;15.43;100.00;101185.42;109607;1245;58389;-73
2023/09/19 03:56:02;;;;;;;11.00;8.80;;;;;;;15.42;100.00;101183.60;109718;1244;74237;-73
2023/09/19 03:58:34;;;;;;;15.90;8.70;;;;;;;15.45;100.00;101179.17;109744;1243;71718;-72
2023/09/19 04:01:03;;;;;;;15.70;9.60;;;;;;;15.56;100.00;101176.09;109774;1243;60677;-72
2023/09/19 04:03:50;;;;;;;12.30;8.80;;;;;;;15.54;100.00;101176.23;109737;1244;63251;-71
2023/09/19 04:06:19;;;;;;;13.80;8.50;;;;;;;15.54;100.00;101177.68;109758;1245;57800;-72
2023/09/19 04:08:48;;;;;;;12.40;8.60;;;;;;;15.55;100.00;101179.16;109712;1244;57815;-73
2023/09/19 04:11:17;;;;;;;13.40;8.60;;;;;;;15.56;100.00;101176.96;109780;1247;62828;-75
2023/09/19 04:13:47;;;;;;;15.20;10.80;;;;;;;15.59;100.00;101174.39;109693;1244;72280;-73
2023/09/19 04:16:16;;;;;;;12.40;8.40;;;;;;;15.74;100.00;101171.39;109662;1245;60413;-72
2023/09/19 04:18:45;;;;;;;14.40;8.20;;;;;;;15.84;100.00;101167.69;109620;1244;72982;-69
2023/09/19 04:21:14;;;;;;;13.90;8.60;;;;;;;15.92;100.00;101164.38;109671;1243;62991;-69
2023/09/19 04:23:42;;;;;;;14.50;8.20;;;;;;;15.99;100.00;101170.13;109674;1244;60701;-71
2023/09/19 04:26:12;;;;;;;17.80;9.30;;;;;;;16.01;100.00;101171.88;109665;1248;65158;-69
2023/09/19 04:28:41;;;;;;;17.80;8.90;;;;;;;16.00;100.00;101171.91;109754;1245;71953;-73
2023/09/19 04:31:11;;;;;;;11.40;8.10;;;;;;;16.04;100.00;101180.23;109801;1243;70057;-69
2023/09/19 04:33:40;;;;;;;16.60;8.90;;;;;;;16.05;100.00;101184.31;109779;1246;62902;-70
2023/09/19 04:36:10;;;;;;;12.20;8.20;;;;;;;16.05;100.00;101181.83;109814;1243;61861;-74
2023/09/19 04:38:59;;;;;;;13.70;8.40;;;;;;;16.10;100.00;101181.58;109779;1243;60768;-73
2023/09/19 04:41:27;;;;;;;13.20;8.40;;;;;;;16.17;100.00;101183.09;109794;1242;74141;-76
2023/09/19 04:43:56;;;;;;;11.20;8.70;;;;;;;16.23;100.00;101178.56;109775;1245;62603;-71
2023/09/19 04:46:25;;;;;;;16.70;9.20;;;;;;;16.30;100.00;101176.52;109768;1245;59825;-71
2023/09/19 04:48:54;;;;;;;12.20;8.10;;;;;;;16.38;100.00;101177.55;109797;1245;62213;-74
2023/09/19 04:51:23;;;;;;;15.30;7.70;;;;;;;16.45;100.00;101178.45;109707;1245;61819;-73
2023/09/19 04:53:52;;;;;;;14.70;7.40;;;;;;;16.53;100.00;101180.93;109806;1243;61523;-73
2023/09/19 04:56:21;;;;;;;10.40;6.80;;;;;;;16.58;100.00;101179.62;109771;1246;73355;-72
2023/09/19 04:58:49;;;;;;;14.50;8.70;;;;;;;16.68;100.00;101174.16;109770;1245;63224;-74
2023/09/19 05:01:18;;;;;;;12.10;8.40;;;;;;;16.83;100.00;101163.79;109775;1248;59825;-73
2023/09/19 05:03:52;;;;;;;11.30;8.30;;;;;;;16.99;100.00;101159.00;109739;1247;63028;-74
2023/09/19 05:06:21;;;;;;;13.10;8.00;;;;;;;17.16;100.00;101156.02;109823;1245;62740;-73
2023/09/19 05:08:53;;;;;;;15.10;7.90;;;;;;;17.30;100.00;101148.85;109767;1244;60741;-74
2023/09/19 05:11:22;;;;;;;13.10;8.10;;;;;;;17.47;100.00;101138.81;109764;1244;74239;-75
2023/09/19 05:13:52;;;;;;;9.70;7.10;;;;;;;17.50;100.00;101132.41;109760;1247;61348;-74
2023/09/19 05:16:21;;;;;;;13.60;7.40;;;;;;;17.56;100.00;101127.74;109864;1244;69439;-74
2023/09/19 05:18:50;;;;;;;13.40;7.50;;;;;;;17.72;100.00;101121.48;109825;1243;73187;-74
2023/09/19 05:21:20;;;;;;;12.90;7.40;;;;;;;17.82;100.00;101113.34;109847;1245;58231;-73
2023/09/19 05:23:49;;;;;;;10.00;6.80;;;;;;;17.90;100.00;101104.91;109838;1244;57756;-73
2023/09/19 05:26:18;;;;;;;11.10;7.00;;;;;;;18.04;100.00;101104.24;109888;1245;62772;-73
2023/09/19 05:28:50;;;;;;;11.60;7.20;;;;;;;18.14;100.00;101104.55;109774;1245;61514;-75
2023/09/19 05:31:18;;;;;;;11.30;7.30;;;;;;;18.28;100.00;101106.86;109688;1243;69671;-73
2023/09/19 05:33:48;;;;;;;10.20;7.10;;;;;;;18.40;100.00;101103.55;109527;1247;73501;-74
2023/09/19 05:36:17;;;;;;;12.60;7.10;;;;;;;18.56;100.00;101104.69;109632;1245;62424;-73
2023/09/19 05:38:48;;;;;;;12.50;7.30;;;;;;;18.58;100.00;101096.13;109702;1244;60990;-73
2023/09/19 05:41:17;;;;;;;12.10;6.70;;;;;;;18.68;100.00;101103.09;109770;1243;63628;-78
2023/09/19 05:43:50;;;;;;;8.70;6.70;;;;;;;18.64;100.00;101097.65;109778;1243;61408;-71
2023/09/19 05:46:19;;;;;;;10.70;6.50;;;;;;;18.64;100.00;101091.66;109805;1242;69577;-71
2023/09/19 05:48:49;;;;;;;12.50;6.20;;;;;;;18.78;100.00;101095.22;109758;1244;72353;-72
2023/09/19 05:51:20;;;;;;;14.40;6.20;;;;;;;18.83;100.00;101097.05;109852;1244;58221;-72
2023/09/19 05:53:50;;;;;;;8.80;6.10;;;;;;;18.87;100.00;101098.23;109866;1244;60234;-73
2023/09/19 05:56:18;;;;;;;9.00;5.80;;;;;;;18.90;100.00;101095.87;109835;1243;75406;-72
2023/09/19 05:58:47;;;;;;;9.20;6.20;;;;;;;18.97;100.00;101092.56;109845;1243;61752;-71
2023/09/19 06:01:16;;;;;;;10.10;6.00;;;;;;;19.07;100.00;101091.88;109879;1244;59843;-74
2023/09/19 06:03:45;;;;;;;7.50;5.60;;;;;;;18.93;100.00;101089.46;109872;1242;62264;-70
2023/09/19 06:06:14;;;;;;;13.40;6.50;;;;;;;19.00;100.00;101089.27;109797;1243;57746;-72
2023/09/19 06:08:45;;;;;;;8.80;5.50;;;;;;;19.06;100.00;101085.44;109924;1243;57658;-72
2023/09/19 06:11:14;;;;;;;10.80;6.30;;;;;;;19.19;100.00;101085.58;109817;1242;74322;-72
2023/09/19 06:13:42;;;;;;;11.90;6.20;;;;;;;19.32;100.00;101086.01;109864;1242;62712;-72
2023/09/19 06:16:11;;;;;;;9.90;5.60;;;;;;;19.29;100.00;101085.73;109827;1244;59760;-72
2023/09/19 06:18:40;;;;;;;7.10;5.00;;;;;;;19.34;100.00;101083.86;109865;1243;63086;-72
2023/09/19 06:21:09;;;;;;;10.50;5.80;;;;;;;19.38;100.00;101085.54;109840;1244;57780;-71
2023/09/19 06:23:38;;;;;;;8.80;5.20;;;;;;;19.44;100.00;101086.71;109821;1243;59287;-71
2023/09/19 06:26:08;;;;;;;8.90;5.20;;;;;;;19.52;100.00;101089.70;109767;1244;74001;-72
2023/09/19 06:28:36;;;;;;;6.80;4.70;;;;;;;19.60;100.00;101088.57;109837;1243;70861;-75
2023/09/19 06:31:09;;;;;;;11.80;5.80;;;;;;;19.70;100.00;101090.85;109862;1244;71275;-71
2023/09/19 06:33:39;;;;;;;9.10;5.10;;;;;;;19.82;100.00;101090.65;109831;1243;63121;-71
2023/09/19 06:36:08;;;;;;;7.60;5.00;;;;;;;19.93;100.00;101086.61;109769;1245;58320;-72
2023/09/19 06:38:38;;;;;;;6.60;4.40;;;;;;;20.09;99.53;101092.41;109824;1243;58192;-72
2023/09/19 06:41:08;;;;;;;9.40;4.80;;;;;;;20.09;98.64;101090.48;109800;1242;63523;-72
2023/09/19 06:43:37;;;;;;;8.70;4.50;;;;;;;20.17;97.10;101096.27;109863;1243;72540;-71
2023/09/19 06:46:07;;;;;;;7.90;4.60;;;;;;;20.29;95.38;101099.06;109862;1242;59385;-73
2023/09/19 06:48:36;;;;;;;8.20;4.60;;;;;;;20.32;93.69;101100.15;109828;1242;73838;-70
2023/09/19 06:51:05;;;;;;;10.10;5.30;;;;;;;20.43;93.15;101097.41;109723;1243;58257;-71
2023/09/19 06:53:35;;;;;;;15.50;5.90;;;;;;;20.56;91.59;101094.55;109726;1243;60358;-72
2023/09/19 06:56:05;;;;;;;18.70;6.20;;;;;;;20.66;90.70;101095.10;109654;1244;64203;-73
2023/09/19 06:58:36;;;;;;;10.20;4.70;;;;;;;20.73;90.45;101094.64;109688;1243;72717;-72
2023/09/19 07:01:05;;;;;;;7.60;4.60;;;;;;;20.86;89.55;101091.43;109753;1244;59471;-71
2023/09/19 07:03:34;;;;;;;6.80;4.40;;;;;;;20.90;88.21;101094.77;109826;1243;63113;-73
2023/09/19 07:06:04;;;;;;;7.00;4.00;;;;;;;21.10;87.41;101097.98;109792;1244;61161;-73
2023/09/19 07:08:33;;;;;;;10.50;3.90;;;;;;;21.25;85.01;101094.06;109745;1243;58318;-71
2023/09/19 07:11:02;;;;;;;13.30;3.90;;;;;;;21.45;83.95;101089.06;109729;1244;74314;-75
2023/09/19 07:13:30;;;;;;;6.80;3.90;;;;;;;21.56;80.51;101085.95;109702;1242;71949;-71
2023/09/19 07:15:59;;;;;;;8.90;3.70;;;;;;;21.56;77.28;101082.94;109735;1243;70037;-72
2023/09/19 07:18:28;;;;;;;6.60;3.80;;;;;;;21.62;75.69;101084.89;109709;1243;62731;-71
2023/09/19 07:21:04;;;;;;;6.60;3.80;;;;;;;21.60;74.08;101083.98;109858;1244;57798;-72
2023/09/19 07:23:34;;;;;;;5.80;3.30;;;;;;;21.77;73.92;101089.09;109742;1244;58324;-71
2023/09/19 07:26:05;;;;;;;9.70;4.20;;;;;;;21.88;74.19;101098.13;109868;1243;62934;-74
2023/09/19 07:28:35;;;;;;;10.00;4.30;;;;;;;22.03;75.90;101092.21;109799;1243;72587;-71
2023/09/19 07:31:05;;;;;;;10.90;3.20;;;;;;;22.18;75.40;101094.73;109708;1244;70774;-76
2023/09/19 07:33:33;;;;;;;6.80;3.70;;;;;;;22.43;74.13;101094.80;109668;1243;74140;-72
2023/09/19 07:36:02;;;;;;;7.10;3.60;;;;;;;22.26;75.19;101093.77;109674;1243;58198;-72
2023/09/19 07:38:32;;;;;;;6.60;3.30;;;;;;;22.32;74.68;101085.94;109711;1242;60289;-71
2023/09/19 07:41:02;;;;;;;9.20;4.00;;;;;;;22.31;72.69;101088.55;109694;1243;64352;-73
2023/09/19 07:43:31;;;;;;;9.80;4.30;;;;;;;22.21;71.04;101090.58;109650;1243;60789;-72
2023/09/19 07:46:11;;;;;;;16.00;3.90;;;;;;;22.24;69.43;101088.83;109710;1242;58945;-71
2023/09/19 07:48:40;;;;;;;11.70;4.70;;;;;;;22.13;70.50;101089.61;109579;1243;72922;-71
2023/09/19 07:51:09;;;;;;;23.00;4.50;;;;;;;22.10;70.13;101089.39;109703;1243;58259;-75
2023/09/19 07:53:38;;;;;;;9.40;3.50;;;;;;;22.08;69.62;101087.63;109707;1243;59442;-72
2023/09/19 07:56:10;;;;;;;6.20;3.00;;;;;;;22.19;70.35;101090.72;109711;1242;65384;-71
2023/09/19 07:58:44;;;;;;;12.00;3.50;;;;;;;22.32;70.66;101087.00;109664;1243;71332;-70
2023/09/19 08:01:13;;;;;;;6.70;3.30;;;;;;;22.50;70.60;101087.98;109697;1243;70098;-73
2023/09/19 08:03:43;;;;;;;6.00;3.30;;;;;;;22.52;69.66;101086.30;109567;1242;62848;-72
2023/09/19 08:06:14;;;;;;;8.00;3.40;;;;;;;22.61;69.26;101088.09;109622;1245;58018;-73
2023/09/19 08:08:43;;;;;;;5.80;3.60;;;;;;;22.68;68.06;101086.13;109697;1242;61051;-72
2023/09/19 08:11:12;;;;;;;9.70;3.60;;;;;;;22.74;68.78;101086.58;109645;1243;74012;-72
2023/09/19 08:13:45;;;;;;;5.70;3.30;;;;;;;22.82;69.29;101085.53;109679;1243;61443;-71
2023/09/19 08:16:16;;;;;;;7.30;3.30;;;;;;;22.91;69.09;101078.14;109662;1242;58951;-72
2023/09/19 08:18:48;;;;;;;7.20;3.60;;;;;;;22.94;67.65;101074.21;109601;1243;74260;-73
2023/09/19 08:21:16;;;;;;;9.90;3.70;;;;;;;23.11;66.86;101070.13;109653;1245;61484;-71
2023/09/19 08:23:45;;;;;;;8.60;3.60;;;;;;;23.26;66.08;101065.42;109716;1242;58281;-71
2023/09/19 08:26:14;;;;;;;7.60;3.20;;;;;;;23.49;66.36;101062.14;109705;1243;63691;-72
2023/09/19 08:28:43;;;;;;;13.10;3.90;;;;;;;23.75;64.64;101057.89;109735;1242;71962;-71
2023/09/19 08:31:12;;;;;;;7.40;3.50;;;;;;;23.97;63.38;101049.56;109703;1243;70746;-74
2023/09/19 08:33:41;;;;;;;7.00;3.40;;;;;;;23.90;62.23;101044.41;109753;1242;73970;-72
2023/09/19 08:36:11;;;;;;;11.70;3.30;;;;;;;24.08;61.24;101034.97;109779;1245;58311;-72
2023/09/19 08:38:40;;;;;;;11.10;3.40;;;;;;;23.78;60.58;101027.98;109824;1243;57745;-70
2023/09/19 08:41:09;;;;;;;18.00;3.60;;;;;;;23.79;60.63;101031.95;109879;1243;63699;-75
2023/09/19 08:43:38;;;;;;;13.20;3.60;;;;;;;23.84;60.55;101024.90;109923;1243;60916;-71
2023/09/19 08:46:19;;;;;;;13.30;3.40;;;;;;;23.98;61.01;101026.55;109852;1243;59762;-71
2023/09/19 08:49:00;;;;;;;8.30;3.20;;;;;;;23.84;60.53;101024.20;109876;1243;73751;-71
2023/09/19 08:51:46;;;;;;;21.70;4.10;;;;;;;23.93;59.20;101022.23;109831;1244;58584;-71
2023/09/19 08:54:29;;;;;;;11.70;3.30;;;;;;;24.18;57.31;101022.30;109734;1242;60659;-70
2023/09/19 08:57:07;;;;;;;10.00;3.50;;;;;;;24.34;55.37;101021.16;109700;1243;74728;-70
2023/09/19 08:59:40;;;;;;;7.40;2.90;;;;;;;24.30;55.50;101022.11;109891;1242;60979;-71
2023/09/19 09:02:13;;;;;;;8.80;3.40;;;;;;;24.14;56.09;101019.71;109808;1243;70242;-71
2023/09/19 09:04:44;;;;;;;7.10;3.10;;;;;;;24.15;55.80;101017.70;109606;1243;63405;-71
2023/09/19 09:07:14;;;;;;;9.40;3.20;;;;;;;24.01;54.64;101016.43;109795;1245;60390;-71
2023/09/19 09:09:43;;;;;;;11.00;3.00;;;;;;;24.08;53.98;101021.10;109755;1243;60265;-70
2023/09/19 09:12:14;;;;;;;10.10;3.00;;;;;;;24.44;53.18;101019.50;109756;1242;63990;-71
2023/09/19 09:14:49;;;;;;;7.20;2.60;;;;;;;24.66;52.69;101016.73;109917;1243;72053;-71
2023/09/19 09:17:20;;;;;;;7.20;3.80;;;;;;;24.77;51.69;101016.80;109816;1242;61176;-71
2023/09/19 09:19:49;;;;;;;5.00;2.90;;;;;;;24.86;51.90;101007.02;109888;1243;63282;-71
2023/09/19 09:22:18;;;;;;;7.00;2.90;;;;;;;25.02;51.31;101014.46;109823;1243;61075;-70
2023/09/19 09:25:04;;;;;;;7.50;2.70;;;;;;;25.07;52.59;101021.95;109771;1243;60556;-71
2023/09/19 09:27:34;;;;;;;4.90;3.00;;;;;;;24.73;53.08;101011.84;109728;1245;64101;-70
2023/09/19 09:30:03;;;;;;;5.20;2.80;;;;;;;24.99;52.98;101013.36;109694;1243;72135;-70
2023/09/19 09:32:35;;;;;;;4.80;3.00;;;;;;;25.25;52.25;101011.84;109728;1243;59179;-70
2023/09/19 09:35:11;;;;;;;5.60;2.30;;;;;;;25.11;53.77;101015.46;109718;1242;62590;-71
2023/09/19 09:37:43;;;;;;;7.80;3.40;;;;;;;25.11;53.77;101012.94;109663;1243;60999;-71
2023/09/19 09:40:35;;;;;;;;;;;;;;;25.22;53.93;101012.95;109612;1244;58179;-71
2023/09/19 09:43:00;;;;;;;6.00;3.20;;;;;;;25.00;55.56;101008.59;109690;1243;74775;-71
2023/09/19 09:45:38;;;;;;;8.20;3.60;;;;;;;25.06;55.48;101001.21;109719;1244;61996;-71
2023/09/19 09:48:14;;;;;;;8.40;3.60;;;;;;;24.63;57.19;100996.68;109739;1243;59310;-71
2023/09/19 09:53:33;;;;;;;7.20;3.40;;;;;;;24.45;59.28;100984.58;109568;1245;57849;-71
2023/09/19 09:56:16;;;;;;;8.20;3.50;;;;;;;24.26;60.40;100980.02;109660;1244;58317;-72
2023/09/19 09:58:59;;;;;;;6.40;3.70;;;;;;;24.20;61.68;100976.70;109663;1244;74445;-71
2023/09/19 10:01:46;;;;;;;8.80;3.50;;;;;;;24.57;61.26;100984.39;109787;1243;61147;-71
2023/09/19 10:04:31;;;;;;;7.80;3.10;;;;;;;24.79;59.57;100991.38;109722;1242;69877;-71
2023/09/19 10:07:05;;;;;;;4.80;2.70;;;;;;;24.89;57.79;100991.42;109644;1243;63479;-70
2023/09/19 10:09:47;;;;;;;11.10;3.40;;;;;;;25.27;55.80;100995.02;109696;1242;58643;-71
2023/09/19 10:12:18;;;;;;;8.10;3.00;;;;;;;25.12;55.93;100986.52;109641;1243;58178;-70
2023/09/19 10:14:48;;;;;;;6.30;3.40;;;;;;;25.31;56.40;100986.02;109704;1243;73617;-70
2023/09/19 10:17:20;;;;;;;5.80;2.80;;;;;;;25.51;56.19;100989.00;109691;1244;62594;-70
2023/09/19 10:19:59;;;;;;;8.50;3.20;;;;;;;25.76;54.72;100988.20;109696;1243;59681;-70
2023/09/19 10:22:30;;;;;;;7.60;3.10;;;;;;;25.64;54.47;100984.23;109476;1245;63419;-71
2023/09/19 10:25:03;;;;;;;13.20;3.20;;;;;;;25.82;54.32;100989.54;109635;1244;57811;-71
2023/09/19 10:27:37;;;;;;;7.60;3.40;;;;;;;25.77;54.61;100994.42;109599;1245;58243;-70
2023/09/19 10:30:08;;;;;;;5.00;3.30;;;;;;;25.72;53.98;100990.13;109688;1246;63007;-70
2023/09/19 10:32:40;;;;;;;18.20;3.90;;;;;;;25.48;53.36;100970.70;109827;1243;71944;-71
2023/09/19 10:35:13;;;;;;;5.80;3.00;;;;;;;25.58;53.17;100977.39;109767;1244;62017;-70
2023/09/19 10:37:44;;;;;;;4.20;2.90;;;;;;;25.91;53.33;100972.30;109316;1244;615067;-71
2023/09/19 10:40:16;;;;;;;7.40;3.20;;;;;;;26.02;53.64;100970.45;109791;1244;57830;-71
2023/09/19 10:42:48;;;;;;;6.00;3.10;;;;;;;26.35;54.08;100968.17;109770;1244;60259;-71
2023/09/19 10:45:18;;;;;;;5.70;3.50;;;;;;;26.82;52.87;100969.35;109803;1244;64261;-71
2023/09/19 10:47:47;;;;;;;7.60;3.00;;;;;;;26.77;54.17;100958.73;109649;1244;60804;-71
2023/09/19 10:50:23;;;;;;;7.40;3.10;;;;;;;27.17;53.18;100960.79;109740;1244;61539;-71
2023/09/19 10:53:04;;;;;;;4.70;3.20;;;;;;;27.29;53.38;100958.73;109595;1245;63536;-71
2023/09/19 10:55:37;;;;;;;11.10;4.30;;;;;;;27.04;54.04;100953.23;109638;1242;58371;-71
2023/09/19 10:58:14;;;;;;;10.40;3.80;;;;;;;26.83;54.99;100957.02;109588;1245;58266;-71
2023/09/19 11:01:06;;;;;;;9.90;3.50;;;;;;;26.13;57.13;100954.10;109625;1244;63712;-71
2023/09/19 11:03:42;;;;;;;5.70;3.30;;;;;;;25.99;58.09;100950.16;109594;1247;61841;-71
2023/09/19 11:06:16;;;;;;;4.90;3.10;;;;;;;26.06;58.12;100947.76;109661;1243;61637;-70
2023/09/19 11:08:56;;;;;;;7.40;3.40;;;;;;;26.17;58.45;100944.63;109634;1244;65183;-70
2023/09/19 11:11:57;;;;;;;7.10;3.20;;;;;;;26.32;57.59;100938.34;109640;1245;58256;-70
2023/09/19 11:14:26;;;;;;;8.80;3.50;;;;;;;25.58;59.72;100930.97;109628;1243;61361;-69
2023/09/19 11:17:07;;;;;;;9.10;3.10;;;;;;;25.78;59.24;100926.13;109721;1243;72992;-70
2023/09/19 11:20:51;;;;;;;5.90;3.30;;;;;;;26.15;56.73;100928.40;109731;1244;61478;-70
2023/09/19 11:23:22;;;;;;;6.10;3.00;;;;;;;26.20;52.30;100929.88;109722;1244;60075;-70
2023/09/19 11:25:53;;;;;;;15.30;3.40;;;;;;;26.40;48.90;100932.85;109605;1243;62418;-70
2023/09/19 11:28:22;;;;;;;4.20;2.80;;;;;;;26.52;46.59;100932.77;109602;1248;61010;-70
2023/09/19 11:30:56;;;;;;;8.40;2.80;;;;;;;26.29;47.88;100939.55;109854;1244;60637;-70
2023/09/19 11:33:37;;;;;;;6.70;3.00;;;;;;;26.07;49.05;100934.91;109638;1245;74406;-70
2023/09/19 11:36:19;;;;;;;5.80;2.90;;;;;;;26.38;48.20;100940.04;109804;1242;63666;-70